KIAG/IAG METAR and TAF weather

Enter ICAO airport designator
Station Type Date Time Source
KIAG METAR 2021/07/30 08:11 UTC NOAA

KIAG 300811Z AUTO 35010KT 10SM BKN022 19/16 A2985 RMK AO2 T01940161


Station Type Date Time Source
KIAG Decoded METAR 2021/07/30 08:11 UTC NOAA

NIAGARA FALLS INTERNATIONAL AIRPORT, NY, United States (KIAG) 43-07N 078-56W 182M
Jul 30, 2021 - 04:11 AM EDT / 2021.07.30 0811 UTC
Wind: from the N (350 degrees) at 12 MPH (10 KT):0
Visibility: 10 mile(s):0
Sky conditions: mostly cloudy
Temperature: 66.9 F (19.4 C)
Dew Point: 61.0 F (16.1 C)
Relative Humidity: 81%
Pressure (altimeter): 29.85 in. Hg (1010 hPa)
ob: KIAG 300811Z AUTO 35010KT 10SM BKN022 19/16 A2985 RMK AO2 T01940161
cycle: 8

Station Type Date Time Source
KIAG TAF 2021/07/30 06:27 UTC NOAA

TAF KIAG 300524Z 3006/3106 21005KT P6SM SCT012
FM300700 32007KT P6SM BKN012
FM300900 34010G17KT 6SM BR BKN015
FM301200 35012KT P6SM BKN020
FM301400 35014KT P6SM BKN150
FM310000 32010G16KT P6SM FEW250

Example: see airport list